sensor_id;sensor_type;location;lat;lon;timestamp;P1;durP1;ratioP1;P2;durP2;ratioP2
46931;SDS011;32670;51.464;11.964;2022-09-29T00:00:48;11.13;;;10.23;;
46931;SDS011;32670;51.464;11.964;2022-09-29T00:03:14;10.97;;;10.00;;
46931;SDS011;32670;51.464;11.964;2022-09-29T00:05:45;10.40;;;9.50;;
46931;SDS011;32670;51.464;11.964;2022-09-29T00:08:11;10.67;;;9.77;;
46931;SDS011;32670;51.464;11.964;2022-09-29T00:10:40;10.30;;;9.47;;
46931;SDS011;32670;51.464;11.964;2022-09-29T00:13:05;10.33;;;9.43;;
46931;SDS011;32670;51.464;11.964;2022-09-29T00:15:31;10.00;;;9.20;;
46931;SDS011;32670;51.464;11.964;2022-09-29T00:17:56;9.83;;;9.03;;
46931;SDS011;32670;51.464;11.964;2022-09-29T00:20:22;9.93;;;9.13;;
46931;SDS011;32670;51.464;11.964;2022-09-29T00:22:50;9.47;;;8.67;;
46931;SDS011;32670;51.464;11.964;2022-09-29T00:25:16;9.93;;;9.13;;
46931;SDS011;32670;51.464;11.964;2022-09-29T00:27:43;8.87;;;8.17;;
46931;SDS011;32670;51.464;11.964;2022-09-29T00:30:09;9.47;;;8.70;;
46931;SDS011;32670;51.464;11.964;2022-09-29T00:32:35;9.10;;;8.30;;
46931;SDS011;32670;51.464;11.964;2022-09-29T00:35:00;9.40;;;8.60;;
46931;SDS011;32670;51.464;11.964;2022-09-29T00:37:26;9.23;;;8.53;;
46931;SDS011;32670;51.464;11.964;2022-09-29T00:39:52;8.90;;;8.20;;
46931;SDS011;32670;51.464;11.964;2022-09-29T00:42:18;8.80;;;8.10;;
46931;SDS011;32670;51.464;11.964;2022-09-29T00:44:55;8.77;;;7.97;;
46931;SDS011;32670;51.464;11.964;2022-09-29T00:47:28;8.67;;;7.97;;
46931;SDS011;32670;51.464;11.964;2022-09-29T00:49:58;8.77;;;8.07;;
46931;SDS011;32670;51.464;11.964;2022-09-29T00:52:37;8.77;;;8.07;;
46931;SDS011;32670;51.464;11.964;2022-09-29T00:58:02;8.13;;;7.43;;
46931;SDS011;32670;51.464;11.964;2022-09-29T01:00:32;8.20;;;7.50;;
46931;SDS011;32670;51.464;11.964;2022-09-29T01:03:03;7.60;;;7.00;;
46931;SDS011;32670;51.464;11.964;2022-09-29T01:05:39;7.70;;;7.10;;
46931;SDS011;32670;51.464;11.964;2022-09-29T01:08:16;8.00;;;7.30;;
46931;SDS011;32670;51.464;11.964;2022-09-29T01:10:49;7.50;;;6.90;;
46931;SDS011;32670;51.464;11.964;2022-09-29T01:13:16;7.87;;;7.27;;
46931;SDS011;32670;51.464;11.964;2022-09-29T01:15:42;7.70;;;7.10;;
46931;SDS011;32670;51.464;11.964;2022-09-29T01:18:08;8.03;;;7.33;;
46931;SDS011;32670;51.464;11.964;2022-09-29T01:20:36;7.50;;;6.90;;
46931;SDS011;32670;51.464;11.964;2022-09-29T01:31:55;7.40;;;6.80;;
46931;SDS011;32670;51.464;11.964;2022-09-29T01:34:33;7.07;;;6.57;;
46931;SDS011;32670;51.464;11.964;2022-09-29T01:39:44;6.40;;;5.90;;
46931;SDS011;32670;51.464;11.964;2022-09-29T01:42:20;6.83;;;6.23;;
46931;SDS011;32670;51.464;11.964;2022-09-29T01:44:52;6.47;;;5.97;;
46931;SDS011;32670;51.464;11.964;2022-09-29T01:47:29;6.40;;;5.90;;
46931;SDS011;32670;51.464;11.964;2022-09-29T01:50:03;6.73;;;6.23;;
46931;SDS011;32670;51.464;11.964;2022-09-29T01:52:33;6.77;;;6.17;;
46931;SDS011;32670;51.464;11.964;2022-09-29T01:55:09;6.93;;;6.33;;
46931;SDS011;32670;51.464;11.964;2022-09-29T01:57:52;6.50;;;6.00;;
46931;SDS011;32670;51.464;11.964;2022-09-29T02:00:31;6.27;;;5.77;;
46931;SDS011;32670;51.464;11.964;2022-09-29T02:03:07;6.50;;;6.00;;
46931;SDS011;32670;51.464;11.964;2022-09-29T02:05:43;6.30;;;5.80;;
46931;SDS011;32670;51.464;11.964;2022-09-29T02:08:16;6.60;;;6.10;;
46931;SDS011;32670;51.464;11.964;2022-09-29T02:11:06;6.20;;;5.70;;
46931;SDS011;32670;51.464;11.964;2022-09-29T02:13:34;6.57;;;6.07;;
46931;SDS011;32670;51.464;11.964;2022-09-29T02:16:10;6.00;;;5.60;;
46931;SDS011;32670;51.464;11.964;2022-09-29T02:21:27;5.97;;;5.47;;
46931;SDS011;32670;51.464;11.964;2022-09-29T02:23:52;5.90;;;5.50;;
46931;SDS011;32670;51.464;11.964;2022-09-29T02:26:19;5.10;;;4.70;;
46931;SDS011;32670;51.464;11.964;2022-09-29T02:28:45;5.17;;;4.77;;
46931;SDS011;32670;51.464;11.964;2022-09-29T02:31:11;5.47;;;5.07;;
46931;SDS011;32670;51.464;11.964;2022-09-29T02:33:38;5.77;;;5.30;;
46931;SDS011;32670;51.464;11.964;2022-09-29T02:36:13;5.43;;;5.03;;
46931;SDS011;32670;51.464;11.964;2022-09-29T02:41:55;5.23;;;4.83;;
46931;SDS011;32670;51.464;11.964;2022-09-29T02:45:14;5.60;;;5.20;;
46931;SDS011;32670;51.464;11.964;2022-09-29T02:48:00;5.00;;;4.60;;
46931;SDS011;32670;51.464;11.964;2022-09-29T02:50:59;5.60;;;5.10;;
46931;SDS011;32670;51.464;11.964;2022-09-29T02:56:28;5.30;;;4.90;;
46931;SDS011;32670;51.464;11.964;2022-09-29T02:59:09;5.20;;;4.80;;
46931;SDS011;32670;51.464;11.964;2022-09-29T03:01:46;5.43;;;5.03;;
46931;SDS011;32670;51.464;11.964;2022-09-29T03:04:13;4.70;;;4.40;;
46931;SDS011;32670;51.464;11.964;2022-09-29T03:06:39;5.10;;;4.70;;
46931;SDS011;32670;51.464;11.964;2022-09-29T03:09:05;4.63;;;4.23;;
46931;SDS011;32670;51.464;11.964;2022-09-29T03:11:30;4.57;;;4.27;;
46931;SDS011;32670;51.464;11.964;2022-09-29T03:13:56;4.50;;;4.20;;
46931;SDS011;32670;51.464;11.964;2022-09-29T03:16:22;4.53;;;4.20;;
46931;SDS011;32670;51.464;11.964;2022-09-29T03:18:47;5.07;;;4.67;;
46931;SDS011;32670;51.464;11.964;2022-09-29T03:21:12;4.33;;;4.03;;
46931;SDS011;32670;51.464;11.964;2022-09-29T03:23:38;4.70;;;4.40;;
46931;SDS011;32670;51.464;11.964;2022-09-29T03:26:04;4.50;;;4.17;;
46931;SDS011;32670;51.464;11.964;2022-09-29T03:28:29;4.53;;;4.20;;
46931;SDS011;32670;51.464;11.964;2022-09-29T03:30:55;4.43;;;4.10;;
46931;SDS011;32670;51.464;11.964;2022-09-29T03:33:20;4.27;;;3.87;;
46931;SDS011;32670;51.464;11.964;2022-09-29T03:35:46;4.20;;;3.90;;
46931;SDS011;32670;51.464;11.964;2022-09-29T03:38:11;4.33;;;4.03;;
46931;SDS011;32670;51.464;11.964;2022-09-29T03:40:37;4.23;;;3.93;;
46931;SDS011;32670;51.464;11.964;2022-09-29T03:43:02;4.17;;;3.87;;
46931;SDS011;32670;51.464;11.964;2022-09-29T03:45:28;4.10;;;3.80;;
46931;SDS011;32670;51.464;11.964;2022-09-29T03:47:53;4.60;;;4.30;;
46931;SDS011;32670;51.464;11.964;2022-09-29T03:50:19;4.00;;;3.70;;
46931;SDS011;32670;51.464;11.964;2022-09-29T03:52:44;4.00;;;3.70;;
46931;SDS011;32670;51.464;11.964;2022-09-29T03:55:10;4.17;;;3.87;;
46931;SDS011;32670;51.464;11.964;2022-09-29T03:57:35;3.90;;;3.60;;
46931;SDS011;32670;51.464;11.964;2022-09-29T04:00:01;4.07;;;3.77;;
46931;SDS011;32670;51.464;11.964;2022-09-29T04:02:27;3.60;;;3.40;;
46931;SDS011;32670;51.464;11.964;2022-09-29T04:04:52;3.90;;;3.60;;
46931;SDS011;32670;51.464;11.964;2022-09-29T04:07:18;3.90;;;3.60;;
46931;SDS011;32670;51.464;11.964;2022-09-29T04:09:43;3.97;;;3.67;;
46931;SDS011;32670;51.464;11.964;2022-09-29T04:12:09;3.97;;;3.67;;
46931;SDS011;32670;51.464;11.964;2022-09-29T04:14:34;4.03;;;3.73;;
46931;SDS011;32670;51.464;11.964;2022-09-29T04:17:00;3.83;;;3.53;;
46931;SDS011;32670;51.464;11.964;2022-09-29T04:19:25;3.60;;;3.23;;
46931;SDS011;32670;51.464;11.964;2022-09-29T04:21:51;3.73;;;3.47;;
46931;SDS011;32670;51.464;11.964;2022-09-29T04:24:16;4.00;;;3.70;;
46931;SDS011;32670;51.464;11.964;2022-09-29T04:26:42;3.47;;;3.27;;
46931;SDS011;32670;51.464;11.964;2022-09-29T04:29:07;3.47;;;3.27;;
46931;SDS011;32670;51.464;11.964;2022-09-29T04:31:33;3.13;;;2.93;;
46931;SDS011;32670;51.464;11.964;2022-09-29T04:33:58;3.50;;;3.20;;
46931;SDS011;32670;51.464;11.964;2022-09-29T04:36:24;3.60;;;3.30;;
46931;SDS011;32670;51.464;11.964;2022-09-29T04:38:49;3.20;;;3.00;;
46931;SDS011;32670;51.464;11.964;2022-09-29T04:41:15;3.27;;;3.07;;
46931;SDS011;32670;51.464;11.964;2022-09-29T04:43:41;3.30;;;3.10;;
46931;SDS011;32670;51.464;11.964;2022-09-29T04:46:07;3.10;;;2.90;;
46931;SDS011;32670;51.464;11.964;2022-09-29T04:48:33;3.10;;;2.90;;
46931;SDS011;32670;51.464;11.964;2022-09-29T04:50:59;3.30;;;3.10;;
46931;SDS011;32670;51.464;11.964;2022-09-29T04:53:26;3.30;;;3.10;;
46931;SDS011;32670;51.464;11.964;2022-09-29T04:55:51;3.03;;;2.83;;
46931;SDS011;32670;51.464;11.964;2022-09-29T04:58:17;3.27;;;3.03;;
46931;SDS011;32670;51.464;11.964;2022-09-29T05:00:42;3.23;;;3.00;;
46931;SDS011;32670;51.464;11.964;2022-09-29T05:03:08;3.07;;;2.87;;
46931;SDS011;32670;51.464;11.964;2022-09-29T05:05:33;3.00;;;2.80;;
46931;SDS011;32670;51.464;11.964;2022-09-29T05:07:59;3.10;;;2.90;;
46931;SDS011;32670;51.464;11.964;2022-09-29T05:10:28;3.17;;;2.97;;
46931;SDS011;32670;51.464;11.964;2022-09-29T05:12:54;3.30;;;3.10;;
46931;SDS011;32670;51.464;11.964;2022-09-29T05:15:19;3.20;;;3.00;;
46931;SDS011;32670;51.464;11.964;2022-09-29T05:17:45;3.33;;;3.00;;
46931;SDS011;32670;51.464;11.964;2022-09-29T05:20:11;3.10;;;2.90;;
46931;SDS011;32670;51.464;11.964;2022-09-29T05:22:37;5.77;;;3.13;;
46931;SDS011;32670;51.464;11.964;2022-09-29T05:25:03;3.40;;;2.77;;
46931;SDS011;32670;51.464;11.964;2022-09-29T05:27:29;6.37;;;5.77;;
46931;SDS011;32670;51.464;11.964;2022-09-29T05:29:54;6.17;;;5.67;;
46931;SDS011;32670;51.464;11.964;2022-09-29T05:32:20;6.00;;;5.50;;
46931;SDS011;32670;51.464;11.964;2022-09-29T05:34:45;5.13;;;4.63;;
46931;SDS011;32670;51.464;11.964;2022-09-29T05:37:11;4.40;;;4.00;;
46931;SDS011;32670;51.464;11.964;2022-09-29T05:39:36;3.70;;;3.40;;
46931;SDS011;32670;51.464;11.964;2022-09-29T05:42:04;2.97;;;2.77;;
46931;SDS011;32670;51.464;11.964;2022-09-29T05:44:30;3.17;;;2.87;;
46931;SDS011;32670;51.464;11.964;2022-09-29T05:46:56;2.60;;;2.40;;
46931;SDS011;32670;51.464;11.964;2022-09-29T05:49:21;3.87;;;2.60;;
46931;SDS011;32670;51.464;11.964;2022-09-29T05:51:47;4.03;;;2.30;;
46931;SDS011;32670;51.464;11.964;2022-09-29T05:54:12;3.33;;;2.10;;
46931;SDS011;32670;51.464;11.964;2022-09-29T05:56:38;2.00;;;1.90;;
46931;SDS011;32670;51.464;11.964;2022-09-29T05:59:03;3.40;;;1.93;;
46931;SDS011;32670;51.464;11.964;2022-09-29T06:01:30;2.07;;;1.97;;
46931;SDS011;32670;51.464;11.964;2022-09-29T06:03:56;5.80;;;5.40;;
46931;SDS011;32670;51.464;11.964;2022-09-29T06:06:25;6.33;;;5.73;;
46931;SDS011;32670;51.464;11.964;2022-09-29T06:08:52;5.10;;;4.70;;
46931;SDS011;32670;51.464;11.964;2022-09-29T06:11:20;5.10;;;3.30;;
46931;SDS011;32670;51.464;11.964;2022-09-29T06:13:48;3.57;;;2.90;;
46931;SDS011;32670;51.464;11.964;2022-09-29T06:16:15;3.60;;;3.30;;
46931;SDS011;32670;51.464;11.964;2022-09-29T06:18:43;3.90;;;3.50;;
46931;SDS011;32670;51.464;11.964;2022-09-29T06:21:10;4.37;;;3.10;;
46931;SDS011;32670;51.464;11.964;2022-09-29T06:23:38;5.47;;;3.20;;
46931;SDS011;32670;51.464;11.964;2022-09-29T06:26:05;4.73;;;4.03;;
46931;SDS011;32670;51.464;11.964;2022-09-29T06:28:33;4.53;;;4.13;;
46931;SDS011;32670;51.464;11.964;2022-09-29T06:31:03;4.87;;;4.37;;
46931;SDS011;32670;51.464;11.964;2022-09-29T06:33:30;5.60;;;4.70;;
46931;SDS011;32670;51.464;11.964;2022-09-29T06:35:57;5.90;;;5.40;;
46931;SDS011;32670;51.464;11.964;2022-09-29T06:38:44;6.20;;;5.60;;
46931;SDS011;32670;51.464;11.964;2022-09-29T06:41:11;6.53;;;6.00;;
46931;SDS011;32670;51.464;11.964;2022-09-29T06:43:37;6.80;;;6.20;;
46931;SDS011;32670;51.464;11.964;2022-09-29T06:46:02;7.07;;;6.47;;
46931;SDS011;32670;51.464;11.964;2022-09-29T06:48:28;6.57;;;5.83;;
46931;SDS011;32670;51.464;11.964;2022-09-29T06:50:54;7.00;;;6.40;;
46931;SDS011;32670;51.464;11.964;2022-09-29T06:53:20;5.30;;;4.90;;
46931;SDS011;32670;51.464;11.964;2022-09-29T06:55:52;6.93;;;6.23;;
46931;SDS011;32670;51.464;11.964;2022-09-29T06:58:20;7.73;;;7.00;;
46931;SDS011;32670;51.464;11.964;2022-09-29T07:00:46;7.87;;;7.17;;
46931;SDS011;32670;51.464;11.964;2022-09-29T07:03:11;7.07;;;6.40;;
46931;SDS011;32670;51.464;11.964;2022-09-29T07:05:37;8.00;;;7.30;;
46931;SDS011;32670;51.464;11.964;2022-09-29T07:08:02;8.50;;;7.10;;
46931;SDS011;32670;51.464;11.964;2022-09-29T07:10:28;7.13;;;6.53;;
46931;SDS011;32670;51.464;11.964;2022-09-29T07:12:53;8.20;;;7.50;;
46931;SDS011;32670;51.464;11.964;2022-09-29T07:15:19;6.93;;;6.33;;
46931;SDS011;32670;51.464;11.964;2022-09-29T07:17:45;7.60;;;6.80;;
46931;SDS011;32670;51.464;11.964;2022-09-29T07:20:10;6.87;;;6.27;;
46931;SDS011;32670;51.464;11.964;2022-09-29T07:22:36;8.10;;;7.30;;
46931;SDS011;32670;51.464;11.964;2022-09-29T07:25:01;9.43;;;7.40;;
46931;SDS011;32670;51.464;11.964;2022-09-29T07:27:27;7.57;;;6.87;;
46931;SDS011;32670;51.464;11.964;2022-09-29T07:29:52;8.70;;;7.57;;
46931;SDS011;32670;51.464;11.964;2022-09-29T07:32:18;8.73;;;7.70;;
46931;SDS011;32670;51.464;11.964;2022-09-29T07:34:44;8.90;;;8.10;;
46931;SDS011;32670;51.464;11.964;2022-09-29T07:37:12;9.10;;;8.27;;
46931;SDS011;32670;51.464;11.964;2022-09-29T07:39:38;10.23;;;9.23;;
46931;SDS011;32670;51.464;11.964;2022-09-29T07:42:03;9.50;;;8.57;;
46931;SDS011;32670;51.464;11.964;2022-09-29T07:44:29;10.77;;;9.77;;
46931;SDS011;32670;51.464;11.964;2022-09-29T07:46:56;12.10;;;10.20;;
46931;SDS011;32670;51.464;11.964;2022-09-29T07:49:22;12.00;;;9.80;;
46931;SDS011;32670;51.464;11.964;2022-09-29T07:51:47;18.57;;;9.93;;
46931;SDS011;32670;51.464;11.964;2022-09-29T07:54:13;11.73;;;10.60;;
46931;SDS011;32670;51.464;11.964;2022-09-29T07:56:38;11.27;;;10.13;;
46931;SDS011;32670;51.464;11.964;2022-09-29T07:59:04;13.10;;;11.60;;
46931;SDS011;32670;51.464;11.964;2022-09-29T08:01:30;12.40;;;11.20;;
46931;SDS011;32670;51.464;11.964;2022-09-29T08:03:56;11.27;;;10.17;;
46931;SDS011;32670;51.464;11.964;2022-09-29T08:06:22;11.00;;;10.10;;
46931;SDS011;32670;51.464;11.964;2022-09-29T08:08:49;11.87;;;10.67;;
46931;SDS011;32670;51.464;11.964;2022-09-29T08:11:16;11.90;;;10.80;;
46931;SDS011;32670;51.464;11.964;2022-09-29T08:13:44;13.83;;;11.47;;
46931;SDS011;32670;51.464;11.964;2022-09-29T08:16:11;13.23;;;11.87;;
46931;SDS011;32670;51.464;11.964;2022-09-29T08:18:37;15.40;;;12.30;;
46931;SDS011;32670;51.464;11.964;2022-09-29T08:21:03;12.47;;;10.47;;
46931;SDS011;32670;51.464;11.964;2022-09-29T08:23:30;10.90;;;10.00;;
46931;SDS011;32670;51.464;11.964;2022-09-29T08:26:00;10.20;;;9.20;;
46931;SDS011;32670;51.464;11.964;2022-09-29T08:28:31;8.83;;;8.07;;
46931;SDS011;32670;51.464;11.964;2022-09-29T08:31:04;8.97;;;8.03;;
46931;SDS011;32670;51.464;11.964;2022-09-29T08:33:32;8.63;;;7.83;;
46931;SDS011;32670;51.464;11.964;2022-09-29T08:35:58;8.23;;;7.47;;
46931;SDS011;32670;51.464;11.964;2022-09-29T08:38:24;9.13;;;8.33;;
46931;SDS011;32670;51.464;11.964;2022-09-29T08:40:51;7.33;;;6.53;;
46931;SDS011;32670;51.464;11.964;2022-09-29T08:43:36;6.90;;;6.20;;
46931;SDS011;32670;51.464;11.964;2022-09-29T08:48:37;7.93;;;7.23;;
46931;SDS011;32670;51.464;11.964;2022-09-29T08:51:10;7.50;;;6.67;;
46931;SDS011;32670;51.464;11.964;2022-09-29T08:53:48;7.63;;;6.93;;
46931;SDS011;32670;51.464;11.964;2022-09-29T08:56:18;7.13;;;6.53;;
46931;SDS011;32670;51.464;11.964;2022-09-29T08:58:44;7.30;;;6.60;;
46931;SDS011;32670;51.464;11.964;2022-09-29T09:06:46;7.43;;;6.73;;
46931;SDS011;32670;51.464;11.964;2022-09-29T09:21:05;7.37;;;6.60;;
46931;SDS011;32670;51.464;11.964;2022-09-29T09:26:10;7.50;;;6.63;;
46931;SDS011;32670;51.464;11.964;2022-09-29T09:28:40;9.17;;;8.27;;
46931;SDS011;32670;51.464;11.964;2022-09-29T09:31:27;10.93;;;9.90;;
46931;SDS011;32670;51.464;11.964;2022-09-29T09:41:45;8.00;;;7.20;;
46931;SDS011;32670;51.464;11.964;2022-09-29T09:44:18;7.03;;;6.23;;
46931;SDS011;32670;51.464;11.964;2022-09-29T09:46:54;6.53;;;5.77;;
46931;SDS011;32670;51.464;11.964;2022-09-29T09:49:34;6.23;;;5.73;;
46931;SDS011;32670;51.464;11.964;2022-09-29T09:54:43;7.53;;;6.83;;
46931;SDS011;32670;51.464;11.964;2022-09-29T09:57:26;8.40;;;7.67;;
46931;SDS011;32670;51.464;11.964;2022-09-29T10:00:13;8.50;;;7.70;;
46931;SDS011;32670;51.464;11.964;2022-09-29T10:02:45;8.80;;;7.93;;
46931;SDS011;32670;51.464;11.964;2022-09-29T10:05:14;8.63;;;7.83;;
46931;SDS011;32670;51.464;11.964;2022-09-29T10:07:41;10.00;;;9.00;;
46931;SDS011;32670;51.464;11.964;2022-09-29T10:10:41;9.67;;;8.87;;
46931;SDS011;32670;51.464;11.964;2022-09-29T10:13:06;9.87;;;9.07;;
46931;SDS011;32670;51.464;11.964;2022-09-29T10:15:52;9.73;;;8.80;;
46931;SDS011;32670;51.464;11.964;2022-09-29T10:18:39;10.57;;;9.57;;
46931;SDS011;32670;51.464;11.964;2022-09-29T10:24:04;11.90;;;10.80;;
46931;SDS011;32670;51.464;11.964;2022-09-29T10:26:43;11.80;;;10.70;;
46931;SDS011;32670;51.464;11.964;2022-09-29T10:34:37;12.57;;;11.47;;
46931;SDS011;32670;51.464;11.964;2022-09-29T10:37:29;10.50;;;9.50;;
46931;SDS011;32670;51.464;11.964;2022-09-29T10:42:40;5.23;;;4.80;;
46931;SDS011;32670;51.464;11.964;2022-09-29T10:45:11;5.97;;;5.27;;
46931;SDS011;32670;51.464;11.964;2022-09-29T10:47:38;10.33;;;9.10;;
46931;SDS011;32670;51.464;11.964;2022-09-29T10:52:47;10.87;;;9.77;;
46931;SDS011;32670;51.464;11.964;2022-09-29T10:55:23;11.13;;;9.83;;
46931;SDS011;32670;51.464;11.964;2022-09-29T10:57:51;11.07;;;9.87;;
46931;SDS011;32670;51.464;11.964;2022-09-29T11:00:31;24.73;;;11.30;;
46931;SDS011;32670;51.464;11.964;2022-09-29T11:08:16;20.90;;;12.27;;
46931;SDS011;32670;51.464;11.964;2022-09-29T11:10:43;19.63;;;12.43;;
46931;SDS011;32670;51.464;11.964;2022-09-29T11:15:43;20.57;;;12.80;;
46931;SDS011;32670;51.464;11.964;2022-09-29T11:18:18;21.47;;;12.93;;
46931;SDS011;32670;51.464;11.964;2022-09-29T11:20:47;19.83;;;13.63;;
46931;SDS011;32670;51.464;11.964;2022-09-29T11:23:25;17.47;;;13.53;;
46931;SDS011;32670;51.464;11.964;2022-09-29T11:26:07;19.40;;;14.00;;
46931;SDS011;32670;51.464;11.964;2022-09-29T11:29:05;20.17;;;12.93;;
46931;SDS011;32670;51.464;11.964;2022-09-29T11:31:49;26.13;;;16.23;;
46931;SDS011;32670;51.464;11.964;2022-09-29T11:34:36;18.37;;;13.30;;
46931;SDS011;32670;51.464;11.964;2022-09-29T11:37:38;20.07;;;14.67;;
46931;SDS011;32670;51.464;11.964;2022-09-29T11:40:20;18.43;;;16.50;;
46931;SDS011;32670;51.464;11.964;2022-09-29T11:46:05;17.17;;;14.80;;
46931;SDS011;32670;51.464;11.964;2022-09-29T11:54:11;23.33;;;17.20;;
46931;SDS011;32670;51.464;11.964;2022-09-29T12:05:26;19.13;;;16.23;;
46931;SDS011;32670;51.464;11.964;2022-09-29T12:08:08;21.63;;;16.27;;
46931;SDS011;32670;51.464;11.964;2022-09-29T12:10:45;18.20;;;16.33;;
46931;SDS011;32670;51.464;11.964;2022-09-29T12:15:58;18.13;;;16.17;;
46931;SDS011;32670;51.464;11.964;2022-09-29T12:18:34;19.83;;;17.40;;
46931;SDS011;32670;51.464;11.964;2022-09-29T12:21:09;18.93;;;16.93;;
46931;SDS011;32670;51.464;11.964;2022-09-29T12:23:36;18.27;;;16.23;;
46931;SDS011;32670;51.464;11.964;2022-09-29T12:26:13;20.13;;;18.03;;
46931;SDS011;32670;51.464;11.964;2022-09-29T12:28:48;21.07;;;18.33;;
46931;SDS011;32670;51.464;11.964;2022-09-29T12:31:36;21.93;;;19.83;;
46931;SDS011;32670;51.464;11.964;2022-09-29T12:34:28;19.90;;;18.00;;
46931;SDS011;32670;51.464;11.964;2022-09-29T12:44:56;21.23;;;18.83;;
46931;SDS011;32670;51.464;11.964;2022-09-29T12:47:51;17.57;;;15.73;;
46931;SDS011;32670;51.464;11.964;2022-09-29T12:50:39;19.03;;;17.00;;
46931;SDS011;32670;51.464;11.964;2022-09-29T12:53:15;20.40;;;18.30;;
46931;SDS011;32670;51.464;11.964;2022-09-29T12:55:54;21.23;;;18.80;;
46931;SDS011;32670;51.464;11.964;2022-09-29T13:01:19;18.57;;;14.93;;
46931;SDS011;32670;51.464;11.964;2022-09-29T13:06:32;11.23;;;9.83;;
46931;SDS011;32670;51.464;11.964;2022-09-29T13:11:48;13.20;;;11.93;;
46931;SDS011;32670;51.464;11.964;2022-09-29T13:17:06;12.10;;;10.80;;
46931;SDS011;32670;51.464;11.964;2022-09-29T13:27:36;13.30;;;12.10;;
46931;SDS011;32670;51.464;11.964;2022-09-29T13:32:46;15.77;;;11.97;;
46931;SDS011;32670;51.464;11.964;2022-09-29T13:35:16;9.70;;;8.80;;
46931;SDS011;32670;51.464;11.964;2022-09-29T13:37:51;12.43;;;11.20;;
46931;SDS011;32670;51.464;11.964;2022-09-29T13:40:26;14.03;;;12.73;;
46931;SDS011;32670;51.464;11.964;2022-09-29T13:42:54;14.43;;;13.03;;
46931;SDS011;32670;51.464;11.964;2022-09-29T13:47:49;15.63;;;12.70;;
46931;SDS011;32670;51.464;11.964;2022-09-29T13:55:50;14.37;;;13.00;;
46931;SDS011;32670;51.464;11.964;2022-09-29T13:59:02;14.37;;;12.97;;
46931;SDS011;32670;51.464;11.964;2022-09-29T14:01:11;15.37;;;13.97;;
46931;SDS011;32670;51.464;11.964;2022-09-29T14:06:57;15.47;;;14.07;;
46931;SDS011;32670;51.464;11.964;2022-09-29T14:09:25;15.57;;;14.17;;
46931;SDS011;32670;51.464;11.964;2022-09-29T14:11:57;16.33;;;14.83;;
46931;SDS011;32670;51.464;11.964;2022-09-29T14:14:45;15.37;;;13.87;;
46931;SDS011;32670;51.464;11.964;2022-09-29T14:17:23;12.83;;;11.60;;
46931;SDS011;32670;51.464;11.964;2022-09-29T14:20:01;7.27;;;6.63;;
46931;SDS011;32670;51.464;11.964;2022-09-29T14:22:49;5.90;;;3.70;;
46931;SDS011;32670;51.464;11.964;2022-09-29T14:27:47;3.50;;;3.23;;
46931;SDS011;32670;51.464;11.964;2022-09-29T14:33:20;2.60;;;2.40;;
46931;SDS011;32670;51.464;11.964;2022-09-29T14:35:54;2.97;;;2.77;;
46931;SDS011;32670;51.464;11.964;2022-09-29T14:40:57;5.33;;;4.83;;
46931;SDS011;32670;51.464;11.964;2022-09-29T14:44:07;6.10;;;5.50;;
46931;SDS011;32670;51.464;11.964;2022-09-29T14:46:23;6.93;;;6.33;;
46931;SDS011;32670;51.464;11.964;2022-09-29T15:01:08;7.53;;;6.83;;
46931;SDS011;32670;51.464;11.964;2022-09-29T15:03:49;7.80;;;7.10;;
46931;SDS011;32670;51.464;11.964;2022-09-29T15:08:51;7.13;;;6.53;;
46931;SDS011;32670;51.464;11.964;2022-09-29T15:11:22;7.27;;;6.50;;
46931;SDS011;32670;51.464;11.964;2022-09-29T15:13:48;7.90;;;7.20;;
46931;SDS011;32670;51.464;11.964;2022-09-29T15:16:19;8.43;;;7.73;;
46931;SDS011;32670;51.464;11.964;2022-09-29T15:19:04;8.50;;;7.70;;
46931;SDS011;32670;51.464;11.964;2022-09-29T15:21:48;8.60;;;7.80;;
46931;SDS011;32670;51.464;11.964;2022-09-29T15:27:34;8.37;;;7.67;;
46931;SDS011;32670;51.464;11.964;2022-09-29T15:30:02;8.23;;;7.47;;
46931;SDS011;32670;51.464;11.964;2022-09-29T15:32:30;8.83;;;7.93;;
46931;SDS011;32670;51.464;11.964;2022-09-29T15:35:00;9.47;;;8.67;;
46931;SDS011;32670;51.464;11.964;2022-09-29T15:38:14;10.87;;;9.80;;
46931;SDS011;32670;51.464;11.964;2022-09-29T15:40:15;11.10;;;10.00;;
46931;SDS011;32670;51.464;11.964;2022-09-29T15:42:42;10.17;;;9.27;;
46931;SDS011;32670;51.464;11.964;2022-09-29T15:45:26;10.10;;;9.20;;
46931;SDS011;32670;51.464;11.964;2022-09-29T15:48:02;10.93;;;9.83;;
46931;SDS011;32670;51.464;11.964;2022-09-29T15:50:30;11.43;;;10.23;;
46931;SDS011;32670;51.464;11.964;2022-09-29T15:52:59;12.63;;;11.37;;
46931;SDS011;32670;51.464;11.964;2022-09-29T15:55:26;12.17;;;10.97;;
46931;SDS011;32670;51.464;11.964;2022-09-29T15:57:53;12.43;;;11.23;;
46931;SDS011;32670;51.464;11.964;2022-09-29T16:05:35;13.30;;;12.10;;
46931;SDS011;32670;51.464;11.964;2022-09-29T16:08:06;14.03;;;12.40;;
46931;SDS011;32670;51.464;11.964;2022-09-29T16:10:52;13.83;;;12.43;;
46931;SDS011;32670;51.464;11.964;2022-09-29T16:13:24;13.40;;;12.13;;
46931;SDS011;32670;51.464;11.964;2022-09-29T16:15:56;14.37;;;13.00;;
46931;SDS011;32670;51.464;11.964;2022-09-29T16:18:28;15.53;;;14.13;;
46931;SDS011;32670;51.464;11.964;2022-09-29T16:21:17;15.37;;;13.93;;
46931;SDS011;32670;51.464;11.964;2022-09-29T16:23:49;15.30;;;13.80;;
46931;SDS011;32670;51.464;11.964;2022-09-29T16:29:00;14.23;;;12.90;;
46931;SDS011;32670;51.464;11.964;2022-09-29T16:31:34;14.27;;;13.07;;
46931;SDS011;32670;51.464;11.964;2022-09-29T16:34:03;15.83;;;14.17;;
46931;SDS011;32670;51.464;11.964;2022-09-29T16:36:46;16.30;;;14.77;;
46931;SDS011;32670;51.464;11.964;2022-09-29T16:39:24;16.47;;;14.87;;
46931;SDS011;32670;51.464;11.964;2022-09-29T16:41:53;15.83;;;14.33;;
46931;SDS011;32670;51.464;11.964;2022-09-29T16:44:27;16.47;;;14.93;;
46931;SDS011;32670;51.464;11.964;2022-09-29T16:49:34;16.13;;;14.73;;
46931;SDS011;32670;51.464;11.964;2022-09-29T16:52:16;17.53;;;15.87;;
46931;SDS011;32670;51.464;11.964;2022-09-29T16:54:45;16.97;;;15.27;;
46931;SDS011;32670;51.464;11.964;2022-09-29T16:57:22;16.97;;;15.43;;
46931;SDS011;32670;51.464;11.964;2022-09-29T16:59:57;16.77;;;15.27;;
46931;SDS011;32670;51.464;11.964;2022-09-29T17:02:25;17.90;;;16.20;;
46931;SDS011;32670;51.464;11.964;2022-09-29T17:04:52;19.03;;;17.23;;
46931;SDS011;32670;51.464;11.964;2022-09-29T17:07:19;18.40;;;16.73;;
46931;SDS011;32670;51.464;11.964;2022-09-29T17:09:47;18.90;;;17.27;;
46931;SDS011;32670;51.464;11.964;2022-09-29T17:12:16;20.80;;;18.80;;
46931;SDS011;32670;51.464;11.964;2022-09-29T17:14:42;19.77;;;17.90;;
46931;SDS011;32670;51.464;11.964;2022-09-29T17:17:13;19.93;;;18.13;;
46931;SDS011;32670;51.464;11.964;2022-09-29T17:19:42;21.33;;;19.43;;
46931;SDS011;32670;51.464;11.964;2022-09-29T17:22:11;21.43;;;19.53;;
46931;SDS011;32670;51.464;11.964;2022-09-29T17:24:54;20.83;;;19.00;;
46931;SDS011;32670;51.464;11.964;2022-09-29T17:27:19;20.90;;;19.00;;
46931;SDS011;32670;51.464;11.964;2022-09-29T17:30:04;21.40;;;19.40;;
46931;SDS011;32670;51.464;11.964;2022-09-29T17:32:30;20.87;;;18.97;;
46931;SDS011;32670;51.464;11.964;2022-09-29T17:34:56;21.47;;;19.47;;
46931;SDS011;32670;51.464;11.964;2022-09-29T17:37:22;20.53;;;18.63;;
46931;SDS011;32670;51.464;11.964;2022-09-29T17:39:47;20.97;;;19.07;;
46931;SDS011;32670;51.464;11.964;2022-09-29T17:42:13;21.60;;;19.60;;